createdAt,value
2018-12-03T00:03:57.715Z,10.41
2018-12-03T00:06:25.435Z,10.38
2018-12-03T00:08:53.255Z,10.39
2018-12-03T00:11:21.036Z,10.41
2018-12-03T00:13:48.675Z,10.47
2018-12-03T00:16:16.321Z,10.42
2018-12-03T00:19:04.238Z,10.44
2018-12-03T00:22:13.238Z,10.44
2018-12-03T00:30:01.676Z,10.50
2018-12-03T00:32:48.979Z,10.49
2018-12-03T00:35:16.741Z,10.53
2018-12-03T00:38:04.056Z,10.54
2018-12-03T00:40:31.776Z,10.54
2018-12-03T00:42:59.542Z,10.58
2018-12-03T00:45:27.258Z,10.56
2018-12-03T00:47:54.947Z,10.54
2018-12-03T00:59:19.497Z,10.53
2018-12-03T01:01:47.148Z,10.52
2018-12-03T01:04:14.842Z,10.51
2018-12-03T01:06:42.555Z,10.44
2018-12-03T01:09:10.251Z,10.41
2018-12-03T01:11:37.997Z,10.43
2018-12-03T01:14:26.253Z,10.49
2018-12-03T01:16:55.791Z,10.48
2018-12-03T01:19:23.472Z,10.54
2018-12-03T01:21:51.118Z,10.57
2018-12-03T01:24:18.764Z,10.58
2018-12-03T01:26:46.448Z,10.54
2018-12-03T01:29:14.099Z,10.54
2018-12-03T01:31:41.788Z,10.53
2018-12-03T01:34:09.433Z,10.54
2018-12-03T01:39:11.867Z,10.61
2018-12-03T01:41:39.555Z,10.59
2018-12-03T01:44:07.272Z,10.58
2018-12-03T01:46:34.952Z,10.60
2018-12-03T01:49:02.644Z,10.63
2018-12-03T01:51:30.296Z,10.64
2018-12-03T01:53:57.983Z,10.73
2018-12-03T01:56:25.702Z,10.76
2018-12-03T01:58:53.397Z,10.75
2018-12-03T02:01:41.055Z,10.71
2018-12-03T02:04:49.971Z,10.80
2018-12-03T02:08:00.591Z,10.77
2018-12-03T02:10:30.027Z,10.83
2018-12-03T02:12:57.780Z,10.86
2018-12-03T02:15:25.468Z,10.88
2018-12-03T02:17:53.189Z,10.90
2018-12-03T02:20:20.888Z,10.95
2018-12-03T02:22:48.529Z,10.92
2018-12-03T02:25:16.221Z,10.89
2018-12-03T02:27:43.911Z,10.89
2018-12-03T02:30:11.726Z,10.89
2018-12-03T02:32:39.423Z,10.92
2018-12-03T02:35:07.067Z,10.91
2018-12-03T02:37:34.751Z,10.97
2018-12-03T02:40:02.446Z,10.90
2018-12-03T02:42:30.089Z,10.87
2018-12-03T02:44:57.812Z,10.97
2018-12-03T02:47:25.465Z,10.93
2018-12-03T02:49:53.168Z,10.92
2018-12-03T02:52:20.804Z,10.98
2018-12-03T02:54:48.555Z,10.92
2018-12-03T02:57:16.201Z,10.89
2018-12-03T02:59:43.810Z,10.89
2018-12-03T03:02:31.203Z,10.85
2018-12-03T03:05:01.237Z,10.86
2018-12-03T03:07:30.798Z,10.86
2018-12-03T03:09:58.470Z,10.83
2018-12-03T03:12:26.076Z,10.89
2018-12-03T03:14:53.634Z,10.88
2018-12-03T03:17:21.313Z,10.86
2018-12-03T03:19:48.863Z,10.84
2018-12-03T03:22:16.485Z,10.85
2018-12-03T03:24:44.051Z,10.85
2018-12-03T03:27:11.574Z,10.85
2018-12-03T03:29:39.092Z,10.86
2018-12-03T03:32:06.761Z,10.84
2018-12-03T03:34:34.369Z,10.86
2018-12-03T03:37:01.920Z,10.87
2018-12-03T03:39:49.154Z,10.77
2018-12-03T03:42:17.092Z,10.84
2018-12-03T03:45:06.330Z,10.83
2018-12-03T03:47:54.273Z,10.81
2018-12-03T03:51:04.769Z,10.82
2018-12-03T03:54:13.874Z,10.85
2018-12-03T03:57:02.727Z,10.84
2018-12-03T03:59:30.360Z,10.93
2018-12-03T04:01:57.880Z,11.00
2018-12-03T04:04:25.493Z,11.00
2018-12-03T04:07:12.662Z,10.92
2018-12-03T04:09:40.268Z,10.89
2018-12-03T04:12:07.959Z,10.93
2018-12-03T04:14:35.512Z,11.00
2018-12-03T04:17:22.803Z,11.06
2018-12-03T04:19:50.487Z,11.05
2018-12-03T04:22:18.200Z,11.16
2018-12-03T04:24:45.898Z,11.21
2018-12-03T04:27:13.655Z,11.28
2018-12-03T04:29:41.292Z,11.20
2018-12-03T04:32:08.899Z,11.13
2018-12-03T04:34:36.460Z,11.18
2018-12-03T04:37:04.095Z,11.20
2018-12-03T04:39:31.775Z,11.23
2018-12-03T04:41:59.407Z,11.25
2018-12-03T04:44:27.081Z,11.26
2018-12-03T04:49:42.068Z,11.09
2018-12-03T04:57:51.108Z,10.84
2018-12-03T05:00:18.737Z,10.83
2018-12-03T05:02:46.423Z,10.82
2018-12-03T05:05:14.053Z,10.76
2018-12-03T05:07:41.734Z,10.73
2018-12-03T05:10:09.376Z,10.73
2018-12-03T05:12:37.051Z,10.73
2018-12-03T05:15:45.432Z,10.72
2018-12-03T05:18:32.704Z,10.72
2018-12-03T05:21:00.343Z,10.71
2018-12-03T05:23:47.552Z,10.71
2018-12-03T05:29:50.955Z,10.64
2018-12-03T05:32:39.888Z,10.61
2018-12-03T05:35:07.558Z,10.60
2018-12-03T05:37:35.121Z,10.58
2018-12-03T05:40:02.873Z,10.60
2018-12-03T05:42:30.509Z,10.58
2018-12-03T05:44:58.117Z,10.61
2018-12-03T05:47:25.747Z,10.61
2018-12-03T05:49:53.275Z,10.66
2018-12-03T05:55:15.444Z,10.67
2018-12-03T05:58:23.936Z,10.73
2018-12-03T06:04:01.490Z,10.77
2018-12-03T06:06:30.210Z,10.83
2018-12-03T06:09:17.584Z,10.80
2018-12-03T06:11:45.269Z,10.80
2018-12-03T06:14:54.561Z,10.80
2018-12-03T06:18:03.393Z,10.84
2018-12-03T06:20:32.926Z,10.88
2018-12-03T06:23:00.526Z,10.85
2018-12-03T06:25:28.277Z,10.88
2018-12-03T06:27:55.969Z,10.90
2018-12-03T06:30:23.602Z,10.90
2018-12-03T06:32:51.282Z,10.83
2018-12-03T06:35:19.074Z,10.83
2018-12-03T06:38:28.193Z,10.82
2018-12-03T06:41:37.047Z,10.85
2018-12-03T06:44:46.254Z,10.90
2018-12-03T06:50:08.394Z,10.89
2018-12-03T06:52:36.075Z,10.94
2018-12-03T06:55:03.749Z,10.91
2018-12-03T06:57:31.392Z,10.95
2018-12-03T06:59:59.030Z,11.00
2018-12-03T07:02:27.646Z,10.98
2018-12-03T07:04:56.237Z,11.03
2018-12-03T07:07:23.769Z,11.01
2018-12-03T07:09:51.532Z,11.02
2018-12-03T07:12:38.809Z,11.03
2018-12-03T07:18:07.952Z,11.00
2018-12-03T07:20:55.130Z,11.00
2018-12-03T07:23:22.815Z,10.99
2018-12-03T07:28:39.002Z,10.99
2018-12-03T07:31:06.638Z,10.96
2018-12-03T07:33:34.411Z,10.96
2018-12-03T07:36:02.041Z,10.98
2018-12-03T07:38:30.384Z,10.96
2018-12-03T07:41:17.835Z,11.03
2018-12-03T07:43:45.462Z,11.07
2018-12-03T07:46:13.995Z,11.06
2018-12-03T07:49:24.464Z,11.02
2018-12-03T07:51:52.151Z,11.01
2018-12-03T07:54:19.840Z,11.01
2018-12-03T07:56:47.395Z,11.04
2018-12-03T07:59:14.963Z,11.02
2018-12-03T08:01:42.581Z,11.02
2018-12-03T08:04:10.203Z,11.04
2018-12-03T08:06:37.838Z,11.03
2018-12-03T08:09:46.223Z,11.07
2018-12-03T08:12:13.931Z,11.13
2018-12-03T08:20:15.456Z,11.10
2018-12-03T08:22:43.128Z,11.07
2018-12-03T08:27:49.088Z,11.01
2018-12-03T08:30:16.762Z,11.01
2018-12-03T08:32:44.344Z,11.00
2018-12-03T08:35:11.997Z,11.03
2018-12-03T08:37:39.631Z,10.94
2018-12-03T08:40:48.583Z,10.96
2018-12-03T08:46:45.758Z,10.98
2018-12-03T08:49:33.208Z,10.98
2018-12-03T08:52:00.849Z,11.01
2018-12-03T08:54:48.094Z,11.03
2018-12-03T08:57:15.718Z,11.11
2018-12-03T09:00:03.006Z,11.14
2018-12-03T09:08:03.164Z,11.41
2018-12-03T09:10:51.559Z,11.55
2018-12-03T09:14:02.566Z,11.61
2018-12-03T09:19:16.890Z,11.58
2018-12-03T09:22:04.057Z,11.58
2018-12-03T09:24:51.387Z,11.65
2018-12-03T09:27:19.017Z,11.72
2018-12-03T09:29:46.654Z,11.72
2018-12-03T09:32:14.356Z,11.90
2018-12-03T09:34:41.983Z,11.96
2018-12-03T09:37:09.659Z,11.91
2018-12-03T09:39:37.320Z,11.93
2018-12-03T09:42:45.714Z,11.95
2018-12-03T09:45:13.324Z,11.96
2018-12-03T09:47:40.916Z,11.99
2018-12-03T09:50:49.286Z,12.00
2018-12-03T09:53:37.501Z,12.09
2018-12-03T09:56:46.497Z,12.22
2018-12-03T09:59:34.580Z,12.29
2018-12-03T10:02:22.652Z,12.28
2018-12-03T10:16:42.581Z,12.05
2018-12-03T10:19:10.147Z,11.90
2018-12-03T10:21:37.705Z,11.87
2018-12-03T10:24:46.096Z,11.85
2018-12-03T10:27:13.766Z,11.77
2018-12-03T10:29:41.399Z,11.68
2018-12-03T10:32:49.770Z,11.65
2018-12-03T10:35:18.381Z,11.59
2018-12-03T10:37:47.651Z,11.54
2018-12-03T10:43:23.401Z,11.53
2018-12-03T10:46:10.314Z,11.60
2018-12-03T10:48:57.531Z,11.60
2018-12-03T10:51:25.216Z,11.65
2018-12-03T10:53:52.902Z,11.64
2018-12-03T10:56:40.082Z,11.75
2018-12-03T10:59:49.258Z,11.75
2018-12-03T11:05:47.156Z,11.86
2018-12-03T11:08:56.848Z,12.03
2018-12-03T11:11:46.032Z,12.14
2018-12-03T11:14:55.641Z,12.27
2018-12-03T11:17:44.196Z,12.37
2018-12-03T11:23:41.578Z,12.53
2018-12-03T11:26:09.209Z,12.44
2018-12-03T11:28:36.885Z,12.43
2018-12-03T11:31:24.439Z,12.44
2018-12-03T11:34:35.249Z,12.51
2018-12-03T11:37:45.978Z,12.56
2018-12-03T11:43:02.165Z,12.74
2018-12-03T11:45:29.794Z,12.74
2018-12-03T11:47:57.465Z,12.76
2018-12-03T11:50:25.132Z,12.77
2018-12-03T11:52:52.772Z,12.76
2018-12-03T11:55:39.995Z,12.81
2018-12-03T11:58:07.656Z,12.88
2018-12-03T12:00:35.328Z,12.87
2018-12-03T12:03:02.996Z,12.96
2018-12-03T12:05:30.623Z,12.95
2018-12-03T12:08:17.843Z,12.88
2018-12-03T12:10:45.393Z,12.92
2018-12-03T12:13:32.613Z,12.92
2018-12-03T12:16:19.888Z,12.90
2018-12-03T12:19:07.057Z,12.87
2018-12-03T12:21:56.266Z,12.86
2018-12-03T12:24:44.275Z,12.91
2018-12-03T12:27:33.446Z,12.91
2018-12-03T12:30:01.242Z,12.95
2018-12-03T12:33:12.050Z,12.93
2018-12-03T12:36:23.029Z,12.92
2018-12-03T12:39:10.410Z,12.90
2018-12-03T12:41:38.040Z,12.91
2018-12-03T12:44:46.420Z,13.00
2018-12-03T12:47:33.623Z,12.96
2018-12-03T12:50:01.297Z,13.05
2018-12-03T12:52:28.848Z,13.06
2018-12-03T12:54:56.518Z,13.04
2018-12-03T12:57:24.140Z,13.08
2018-12-03T12:59:51.740Z,13.05
2018-12-03T13:02:38.914Z,13.02
2018-12-03T13:05:06.589Z,13.03
2018-12-03T13:10:41.205Z,13.05
2018-12-03T13:13:08.868Z,13.12
2018-12-03T13:15:36.499Z,13.14
2018-12-03T13:18:23.815Z,13.18
2018-12-03T13:20:51.978Z,13.12
2018-12-03T13:24:01.123Z,13.11
2018-12-03T13:26:50.239Z,13.13
2018-12-03T13:29:37.406Z,12.99
2018-12-03T13:32:46.445Z,12.98
2018-12-03T13:35:54.813Z,12.90
2018-12-03T13:38:22.477Z,12.85
2018-12-03T13:40:50.108Z,12.70
2018-12-03T13:43:37.647Z,12.59
2018-12-03T13:46:26.193Z,12.45
2018-12-03T13:48:55.763Z,12.28
2018-12-03T13:51:43.964Z,12.11
2018-12-03T13:54:52.311Z,12.03
2018-12-03T13:57:19.990Z,11.96
2018-12-03T13:59:47.656Z,11.86
2018-12-03T14:02:34.834Z,11.83
2018-12-03T14:05:02.565Z,11.74
2018-12-03T14:07:30.198Z,11.71
2018-12-03T14:10:38.571Z,11.54
2018-12-03T14:13:46.901Z,11.33
2018-12-03T14:16:35.257Z,11.01
2018-12-03T14:19:03.990Z,11.19
2018-12-03T14:22:12.859Z,11.17
2018-12-03T14:25:22.545Z,11.10
2018-12-03T14:27:50.469Z,10.99
2018-12-03T14:30:59.654Z,11.01
2018-12-03T14:33:27.376Z,11.03
2018-12-03T14:36:14.550Z,11.00
2018-12-03T14:38:42.215Z,10.99
2018-12-03T14:41:29.469Z,11.01
2018-12-03T14:43:57.150Z,11.05
2018-12-03T14:46:24.791Z,11.13
2018-12-03T14:49:34.311Z,11.10
2018-12-03T14:52:02.248Z,11.13
2018-12-03T14:55:10.831Z,11.12
2018-12-03T14:57:38.426Z,11.19
2018-12-03T15:00:46.796Z,11.28
2018-12-03T15:03:14.435Z,11.32
2018-12-03T15:05:42.048Z,11.30
2018-12-03T15:08:09.677Z,11.31
2018-12-03T15:10:37.350Z,11.28
2018-12-03T15:13:04.981Z,11.31
2018-12-03T15:15:32.672Z,11.34
2018-12-03T15:18:21.084Z,11.34
2018-12-03T15:21:10.950Z,11.37
2018-12-03T15:23:40.219Z,11.39
2018-12-03T15:26:27.269Z,11.47
2018-12-03T15:28:54.916Z,11.43
2018-12-03T15:31:22.547Z,11.46
2018-12-03T15:34:09.823Z,11.46
2018-12-03T15:36:57.106Z,11.47
2018-12-03T15:39:44.283Z,11.50
2018-12-03T15:42:31.254Z,11.43
2018-12-03T15:44:58.903Z,11.43
2018-12-03T15:47:26.458Z,11.45
2018-12-03T15:49:54.128Z,11.44
2018-12-03T15:52:21.764Z,11.40
2018-12-03T15:54:49.363Z,11.44
2018-12-03T15:57:16.996Z,11.42
2018-12-03T15:59:44.675Z,11.38
2018-12-03T16:02:12.312Z,11.31
2018-12-03T16:04:39.880Z,11.37
2018-12-03T16:07:07.543Z,11.46
2018-12-03T16:09:35.265Z,11.43
2018-12-03T16:12:02.945Z,11.39
2018-12-03T16:14:30.548Z,11.38
2018-12-03T16:16:58.184Z,11.39
2018-12-03T16:19:25.870Z,11.36
2018-12-03T16:21:53.536Z,11.37
2018-12-03T16:24:21.169Z,11.32
2018-12-03T16:26:49.407Z,11.38
2018-12-03T16:29:36.659Z,11.32
2018-12-03T16:32:24.627Z,11.29
2018-12-03T16:34:54.123Z,11.28
2018-12-03T16:37:21.751Z,11.27
2018-12-03T16:39:49.446Z,11.30
2018-12-03T16:42:17.018Z,11.26
2018-12-03T16:44:44.647Z,11.25
2018-12-03T16:47:12.248Z,11.23
2018-12-03T16:49:39.914Z,11.21
2018-12-03T16:52:07.586Z,11.18
2018-12-03T16:54:35.259Z,11.16
2018-12-03T16:57:22.442Z,11.15
2018-12-03T16:59:50.120Z,11.16
2018-12-03T17:02:17.795Z,11.15
2018-12-03T17:04:45.484Z,11.12
2018-12-03T17:07:14.173Z,11.06
2018-12-03T17:10:23.399Z,11.06
2018-12-03T17:12:52.003Z,11.03
2018-12-03T17:15:40.020Z,11.03
2018-12-03T17:18:09.591Z,11.05
2018-12-03T17:23:24.059Z,10.95
2018-12-03T17:25:51.549Z,10.93
2018-12-03T17:28:19.189Z,10.93
2018-12-03T17:33:21.860Z,10.92
2018-12-03T17:36:09.173Z,10.90
2018-12-03T17:38:36.867Z,10.91
2018-12-03T17:41:04.495Z,10.90
2018-12-03T17:43:32.268Z,10.86
2018-12-03T17:45:59.948Z,10.91
2018-12-03T17:48:47.210Z,10.88
2018-12-03T17:51:15.185Z,10.85
2018-12-03T17:53:42.823Z,10.88
2018-12-03T17:56:11.153Z,10.92
2018-12-03T17:58:41.083Z,10.89
2018-12-03T18:01:08.937Z,10.92
2018-12-03T18:03:36.510Z,11.06
2018-12-03T18:06:04.326Z,11.16
2018-12-03T18:08:32.096Z,11.12
2018-12-03T18:11:19.419Z,11.08
2018-12-03T18:13:47.096Z,11.03
2018-12-03T18:16:14.781Z,11.03
2018-12-03T18:18:42.416Z,10.98
2018-12-03T18:21:29.698Z,10.98
2018-12-03T18:23:57.257Z,10.95
2018-12-03T18:26:25.027Z,10.91
2018-12-03T18:28:53.238Z,10.88
2018-12-03T18:31:20.908Z,10.90
2018-12-03T18:33:49.194Z,10.95
2018-12-03T18:36:36.462Z,10.96
2018-12-03T18:39:44.865Z,10.96
2018-12-03T18:42:32.139Z,10.93
2018-12-03T18:45:19.969Z,10.91
2018-12-03T18:48:30.160Z,10.92
2018-12-03T18:51:17.141Z,10.88
2018-12-03T18:54:04.366Z,10.87
2018-12-03T18:56:52.343Z,10.85
2018-12-03T18:59:33.681Z,10.92
2018-12-03T19:02:01.339Z,11.02
2018-12-03T19:04:28.903Z,11.04
2018-12-03T19:07:37.292Z,11.04
2018-12-03T19:10:05.082Z,11.18
2018-12-03T19:12:32.715Z,11.20
2018-12-03T19:15:20.005Z,11.20
2018-12-03T19:17:47.563Z,11.19
2018-12-03T19:20:15.310Z,11.15
2018-12-03T19:22:43.861Z,11.15
2018-12-03T19:27:58.588Z,11.11
2018-12-03T19:30:26.277Z,11.05
2018-12-03T19:32:53.914Z,10.99
2018-12-03T19:35:21.600Z,10.99
2018-12-03T19:37:49.290Z,10.97
2018-12-03T19:40:16.929Z,10.97
2018-12-03T19:42:44.619Z,10.88
2018-12-03T19:45:12.357Z,10.81
2018-12-03T19:47:39.990Z,10.75
2018-12-03T19:50:07.669Z,10.70
2018-12-03T19:52:56.015Z,10.66
2018-12-03T19:58:20.322Z,10.61
2018-12-03T20:00:47.962Z,10.64
2018-12-03T20:03:15.655Z,10.65
2018-12-03T20:05:43.296Z,10.46
2018-12-03T20:08:30.346Z,10.44
2018-12-03T20:10:58.001Z,10.41
2018-12-03T20:13:25.662Z,10.40
2018-12-03T20:15:53.297Z,10.44
2018-12-03T20:18:20.944Z,10.43
2018-12-03T20:20:48.627Z,10.41
2018-12-03T20:23:16.265Z,10.42
2018-12-03T20:26:24.656Z,10.41
2018-12-03T20:28:52.411Z,10.39
2018-12-03T20:31:20.275Z,10.28
2018-12-03T20:37:17.307Z,10.14
2018-12-03T20:40:26.711Z,10.07
2018-12-03T20:43:14.499Z,10.05
2018-12-03T20:46:22.373Z,9.93
2018-12-03T20:48:50.291Z,10.01
2018-12-03T20:52:00.751Z,9.86
2018-12-03T20:58:17.575Z,9.79
2018-12-03T21:01:06.500Z,9.67
2018-12-03T21:03:35.924Z,9.60
2018-12-03T21:06:03.600Z,9.59
2018-12-03T21:08:31.236Z,9.65
2018-12-03T21:10:58.926Z,9.70
2018-12-03T21:13:26.561Z,9.70
2018-12-03T21:15:54.245Z,9.83
2018-12-03T21:18:21.879Z,9.76
2018-12-03T21:20:49.522Z,9.71
2018-12-03T21:23:17.207Z,9.74
2018-12-03T21:25:45.016Z,9.76
2018-12-03T21:28:15.150Z,9.80
2018-12-03T21:30:44.749Z,9.82
2018-12-03T21:33:12.368Z,9.82
2018-12-03T21:35:40.007Z,9.81
2018-12-03T21:38:07.613Z,9.84
2018-12-03T21:40:35.252Z,9.87
2018-12-03T21:43:02.937Z,9.82
2018-12-03T21:45:30.629Z,9.81
2018-12-03T21:47:58.331Z,9.76
2018-12-03T21:50:25.958Z,9.75
2018-12-03T21:52:53.596Z,9.74
2018-12-03T21:55:21.258Z,9.71
2018-12-03T21:57:48.893Z,9.64
2018-12-03T22:02:56.121Z,9.63
2018-12-03T22:05:43.366Z,9.57
2018-12-03T22:08:11.049Z,9.62
2018-12-03T22:10:38.685Z,9.57
2018-12-03T22:13:06.316Z,9.57
2018-12-03T22:15:33.995Z,9.58
2018-12-03T22:18:01.676Z,9.56
2018-12-03T22:20:29.311Z,9.57
2018-12-03T22:22:56.977Z,9.53
2018-12-03T22:25:24.537Z,9.58
2018-12-03T22:27:52.214Z,9.54
2018-12-03T22:30:19.901Z,9.49
2018-12-03T22:32:47.534Z,9.45
2018-12-03T22:35:15.170Z,9.42
2018-12-03T22:37:43.727Z,9.36
2018-12-03T22:40:31.974Z,9.35
2018-12-03T22:43:01.334Z,9.39
2018-12-03T22:45:28.997Z,9.38
2018-12-03T22:47:56.637Z,9.38
2018-12-03T22:50:24.324Z,9.39
2018-12-03T22:52:52.015Z,9.47
2018-12-03T22:55:19.697Z,9.38
2018-12-03T22:57:47.323Z,9.36
2018-12-03T23:00:55.697Z,9.34
2018-12-03T23:03:23.377Z,9.36
2018-12-03T23:06:10.630Z,9.37
2018-12-03T23:08:38.314Z,9.32
2018-12-03T23:11:05.950Z,9.30
2018-12-03T23:13:53.211Z,9.29
2018-12-03T23:16:20.886Z,9.27
2018-12-03T23:18:48.521Z,9.28
2018-12-03T23:21:16.196Z,9.28
2018-12-03T23:23:45.063Z,9.23
2018-12-03T23:26:14.033Z,9.26
2018-12-03T23:28:41.675Z,9.26
2018-12-03T23:31:09.358Z,9.39
2018-12-03T23:33:36.983Z,9.29
2018-12-03T23:36:05.475Z,9.29
2018-12-03T23:38:53.423Z,9.31
2018-12-03T23:41:41.490Z,9.36
2018-12-03T23:53:34.004Z,9.30
2018-12-03T23:56:01.673Z,9.24
2018-12-03T23:58:29.364Z,9.24
